This is the latest recevied weather packets stored in our database for station/object KN6DHD. If no packets are shown the sender has not sent any weather packets the latest 1 day(s).
| Time | Temp. | Humidity | Pressure | Rain* | Wind** | Luminosity | Snow |
|---|---|---|---|---|---|---|---|
| 1778035144 | 17.78° C | 78% | 1016.1 hPa | 0 mm | 0 m/s | 10 W/m² | - |
| 1778034841 | 17.78° C | 78% | 1016.1 hPa | 0 mm | 0 m/s | 12 W/m² | - |
| 1778034538 | 17.78° C | 78% | 1016 hPa | 0 mm | 0.45 m/s, 108° | 13 W/m² | - |
| 1778034235 | 17.78° C | 78% | 1015.7 hPa | 0 mm | 0 m/s | 16 W/m² | - |
| 1778033933 | 17.78° C | 78% | 1016.1 hPa | 0 mm | 0 m/s | 18 W/m² | - |
| 1778033630 | 17.78° C | 78% | 1016 hPa | 0 mm | 0.45 m/s, 97° | 23 W/m² | - |
| 1778033327 | 18.33° C | 77% | 1015.8 hPa | 0 mm | 0.45 m/s, 106° | 26 W/m² | - |
| 1778033025 | 18.33° C | 77% | 1015.8 hPa | 0 mm | 0 m/s | 30 W/m² | - |
| 1778032722 | 18.33° C | 76% | 1016 hPa | 0 mm | 0 m/s | 34 W/m² | - |
| 1778032419 | 18.33° C | 76% | 1016.2 hPa | 0 mm | 0 m/s | 45 W/m² | - |
| 1778032116 | 18.33° C | 76% | 1015.7 hPa | 0 mm | 0.45 m/s, 105° | 42 W/m² | - |
| 1778031813 | 18.33° C | 75% | 1015.9 hPa | 0 mm | 0.45 m/s, 90° | 46 W/m² | - |
| 1778031509 | 18.33° C | 74% | 1015.9 hPa | 0 mm | 0.45 m/s, 153° | 55 W/m² | - |
| 1778031207 | 18.33° C | 73% | 1015.8 hPa | 0 mm | 0.45 m/s, 108° | 55 W/m² | - |
| 1778030903 | 18.33° C | 72% | 1015.9 hPa | 0 mm | 0.45 m/s, 128° | 60 W/m² | - |
| 1778030601 | 18.89° C | 72% | 1015.6 hPa | 0 mm | 0 m/s | 62 W/m² | - |
| 1778030298 | 18.89° C | 74% | 1015.8 hPa | 0 mm | 0 m/s | 67 W/m² | - |
| 1778029994 | 18.89° C | 73% | 1015.7 hPa | 0 mm | 0 m/s | 73 W/m² | - |
| 1778029692 | 18.89° C | 73% | 1015.6 hPa | 0 mm | 0 m/s | 73 W/m² | - |
| 1778029389 | 18.89° C | 74% | 1015.7 hPa | 0 mm | 0 m/s | 75 W/m² | - |
| 1778029086 | 18.33° C | 74% | 1015.7 hPa | 0 mm | 0 m/s | 75 W/m² | - |
| 1778028783 | 18.33° C | 74% | 1015.5 hPa | 0 mm | 0 m/s | 78 W/m² | - |
| 1778028479 | 18.33° C | 75% | 1015.5 hPa | 0 mm | 0.45 m/s, 120° | 77 W/m² | - |
| 1778028177 | 18.33° C | 75% | 1015.7 hPa | 0 mm | 1.34 m/s, 110° | 74 W/m² | - |
| 1778027873 | 18.33° C | 75% | 1015.6 hPa | 0 mm | 0.45 m/s, 127° | 76 W/m² | - |
* Rain latest hour (hover to see other rain measurements)
** Current wind speed in m/s (hover to see current wind gust speed)